sensor_id;sensor_type;location;lat;lon;timestamp;P1;durP1;ratioP1;P2;durP2;ratioP2
31686;SDS011;18285;51.330;4.946;2023-03-23T00:06:32;1.70;;;0.90;;
31686;SDS011;18285;51.330;4.946;2023-03-23T00:30:44;1.52;;;0.70;;
31686;SDS011;18285;51.330;4.946;2023-03-23T01:19:06;1.57;;;0.80;;
31686;SDS011;18285;51.330;4.946;2023-03-23T02:07:27;1.03;;;0.70;;
31686;SDS011;18285;51.330;4.946;2023-03-23T02:55:52;1.70;;;0.80;;
31686;SDS011;18285;51.330;4.946;2023-03-23T03:20:05;1.27;;;0.80;;
31686;SDS011;18285;51.330;4.946;2023-03-23T03:44:21;1.25;;;0.70;;
31686;SDS011;18285;51.330;4.946;2023-03-23T04:08:32;1.42;;;0.80;;
31686;SDS011;18285;51.330;4.946;2023-03-23T04:32:43;1.10;;;0.60;;
31686;SDS011;18285;51.330;4.946;2023-03-23T04:56:53;1.90;;;0.90;;
31686;SDS011;18285;51.330;4.946;2023-03-23T05:21:04;1.00;;;0.70;;
31686;SDS011;18285;51.330;4.946;2023-03-23T05:45:15;3.97;;;0.83;;
31686;SDS011;18285;51.330;4.946;2023-03-23T06:09:26;5.72;;;1.38;;
31686;SDS011;18285;51.330;4.946;2023-03-23T06:33:37;4.07;;;1.27;;
31686;SDS011;18285;51.330;4.946;2023-03-23T06:57:48;11.60;;;3.20;;
31686;SDS011;18285;51.330;4.946;2023-03-23T07:21:59;6.20;;;2.50;;
31686;SDS011;18285;51.330;4.946;2023-03-23T07:46:10;6.57;;;1.27;;
31686;SDS011;18285;51.330;4.946;2023-03-23T08:10:22;4.47;;;1.10;;
31686;SDS011;18285;51.330;4.946;2023-03-23T08:58:43;4.67;;;2.03;;
31686;SDS011;18285;51.330;4.946;2023-03-23T09:22:55;3.97;;;1.43;;
31686;SDS011;18285;51.330;4.946;2023-03-23T11:00:40;1.73;;;0.90;;
31686;SDS011;18285;51.330;4.946;2023-03-23T11:24:59;2.55;;;0.95;;
31686;SDS011;18285;51.330;4.946;2023-03-23T11:49:25;2.35;;;0.90;;
31686;SDS011;18285;51.330;4.946;2023-03-23T12:14:00;2.47;;;1.10;;
31686;SDS011;18285;51.330;4.946;2023-03-23T13:03:10;3.47;;;1.42;;
31686;SDS011;18285;51.330;4.946;2023-03-23T13:27:40;4.13;;;1.60;;
31686;SDS011;18285;51.330;4.946;2023-03-23T13:51:57;2.85;;;1.13;;
31686;SDS011;18285;51.330;4.946;2023-03-23T14:16:15;3.03;;;1.17;;
31686;SDS011;18285;51.330;4.946;2023-03-23T14:40:32;3.67;;;1.50;;
31686;SDS011;18285;51.330;4.946;2023-03-23T15:04:45;4.03;;;1.50;;
31686;SDS011;18285;51.330;4.946;2023-03-23T15:29:31;3.17;;;1.20;;
31686;SDS011;18285;51.330;4.946;2023-03-23T15:53:36;8.60;;;2.10;;
31686;SDS011;18285;51.330;4.946;2023-03-23T16:17:50;9.98;;;2.72;;
31686;SDS011;18285;51.330;4.946;2023-03-23T16:42:00;7.63;;;2.55;;
31686;SDS011;18285;51.330;4.946;2023-03-23T17:06:11;8.23;;;2.30;;
31686;SDS011;18285;51.330;4.946;2023-03-23T17:30:22;7.50;;;2.15;;
31686;SDS011;18285;51.330;4.946;2023-03-23T17:54:33;7.17;;;2.40;;
31686;SDS011;18285;51.330;4.946;2023-03-23T18:18:44;6.20;;;1.98;;
31686;SDS011;18285;51.330;4.946;2023-03-23T18:42:56;7.93;;;1.95;;
31686;SDS011;18285;51.330;4.946;2023-03-23T19:07:07;5.83;;;2.10;;
31686;SDS011;18285;51.330;4.946;2023-03-23T19:31:18;4.67;;;2.03;;
31686;SDS011;18285;51.330;4.946;2023-03-23T19:55:33;7.85;;;2.10;;
31686;SDS011;18285;51.330;4.946;2023-03-23T20:19:46;8.00;;;2.08;;
31686;SDS011;18285;51.330;4.946;2023-03-23T20:43:56;7.07;;;2.20;;
31686;SDS011;18285;51.330;4.946;2023-03-23T21:08:09;5.68;;;1.88;;
31686;SDS011;18285;51.330;4.946;2023-03-23T21:32:20;6.57;;;2.00;;
31686;SDS011;18285;51.330;4.946;2023-03-23T21:56:31;7.00;;;1.80;;
31686;SDS011;18285;51.330;4.946;2023-03-23T22:20:42;3.15;;;1.73;;
31686;SDS011;18285;51.330;4.946;2023-03-23T22:44:52;2.53;;;1.40;;
31686;SDS011;18285;51.330;4.946;2023-03-23T23:09:03;2.33;;;1.25;;
31686;SDS011;18285;51.330;4.946;2023-03-23T23:33:15;2.53;;;1.35;;
31686;SDS011;18285;51.330;4.946;2023-03-23T23:57:26;1.95;;;1.13;;
